Time;durP1;ratioP1;P1;durP2;ratioP2;P2;SDS_P1;SDS_P2;PMS_P1;PMS_P2;Temp;Humidity;BMP_temperature;BMP_pressure;BME280_temperature;BME280_humidity;BME280_pressure;Samples;Min_cycle;Max_cycle;Signal;HPM_P1;HPM_P2
2022/08/01 00:01:24;;;;;;;5.40;3.40;;;17.90;99.90;;;;;;4996794;28;20077;-71
2022/08/01 00:03:50;;;;;;;7.45;3.90;;;17.90;99.90;;;;;;4995844;28;20042;-71
2022/08/01 00:06:15;;;;;;;4.32;2.72;;;17.90;99.90;;;;;;4996773;28;20133;-71
2022/08/01 00:08:41;;;;;;;6.28;3.00;;;17.90;99.90;;;;;;4995345;28;20063;-71
2022/08/01 00:11:08;;;;;;;4.65;2.85;;;17.90;99.90;;;;;;4996886;28;20576;-71
2022/08/01 00:13:34;;;;;;;4.90;3.28;;;17.90;99.90;;;;;;4979428;28;20098;-71
2022/08/01 00:16:00;;;;;;;8.57;4.13;;;17.90;99.90;;;;;;4995268;28;20074;-71
2022/08/01 00:18:26;;;;;;;7.90;3.63;;;17.90;99.90;;;;;;4996123;28;20046;-71
2022/08/01 00:20:52;;;;;;;8.50;5.30;;;17.90;99.90;;;;;;4995492;28;20545;-71
2022/08/01 00:23:17;;;;;;;9.63;4.30;;;17.90;99.90;;;;;;4996947;28;20228;-70
2022/08/01 00:25:43;;;;;;;9.88;4.93;;;17.90;99.90;;;;;;4979189;28;20451;-70
2022/08/01 00:28:09;;;;;;;9.05;4.43;;;17.90;99.90;;;;;;4995076;28;20109;-70
2022/08/01 00:30:35;;;;;;;11.43;4.55;;;17.90;99.90;;;;;;4995330;28;20050;-71
2022/08/01 00:33:02;;;;;;;9.77;4.72;;;17.90;99.90;;;;;;4996256;28;20513;-71
2022/08/01 00:35:28;;;;;;;8.50;4.78;;;17.90;99.90;;;;;;4996392;28;20042;-71
2022/08/01 00:37:53;;;;;;;9.60;4.22;;;17.90;99.90;;;;;;4996139;28;20046;-71
2022/08/01 00:40:19;;;;;;;10.38;4.78;;;17.90;99.90;;;;;;4995168;28;20145;-71
2022/08/01 00:42:45;;;;;;;6.53;3.78;;;17.90;99.90;;;;;;4978640;28;20042;-71
2022/08/01 00:45:11;;;;;;;8.13;4.35;;;17.90;99.90;;;;;;4979596;28;20138;-70
2022/08/01 00:47:37;;;;;;;6.07;3.35;;;17.90;99.90;;;;;;4995961;28;20057;-70
2022/08/01 00:50:04;;;;;;;4.35;2.33;;;17.90;99.90;;;;;;4994198;28;20042;-70
2022/08/01 00:52:31;;;;;;;5.72;1.90;;;17.90;99.90;;;;;;4996355;28;20050;-71
2022/08/01 00:54:56;;;;;;;4.70;2.20;;;17.90;99.90;;;;;;4994277;28;20042;-71
2022/08/01 00:57:22;;;;;;;7.50;2.50;;;17.90;99.90;;;;;;4995419;28;20048;-71
2022/08/01 00:59:48;;;;;;;3.97;2.33;;;17.90;99.90;;;;;;4978631;28;20062;-71
2022/08/01 01:02:14;;;;;;;4.70;2.40;;;17.80;99.90;;;;;;4994828;28;20046;-70
2022/08/01 01:04:39;;;;;;;3.97;2.10;;;17.80;99.90;;;;;;4995557;28;20455;-70
2022/08/01 01:07:11;;;;;;;4.53;2.45;;;17.80;99.90;;;;;;4978577;28;20105;-70
2022/08/01 01:10:06;;;;;;;5.57;2.05;;;17.80;99.90;;;;;;4994700;28;20050;-70
2022/08/01 01:12:39;;;;;;;6.97;2.05;;;17.80;99.90;;;;;;4987256;28;20086;-71
2022/08/01 01:15:09;;;;;;;4.15;2.05;;;17.80;99.90;;;;;;4994353;28;20050;-71
2022/08/01 01:17:59;;;;;;;3.20;1.63;;;17.80;99.90;;;;;;4994327;28;20050;-70
2022/08/01 01:20:30;;;;;;;6.07;1.80;;;17.70;99.90;;;;;;4995056;28;20360;-71
2022/08/01 01:22:55;;;;;;;3.33;1.83;;;17.80;99.90;;;;;;4995410;28;20054;-70
2022/08/01 01:25:36;;;;;;;3.35;1.77;;;17.80;99.90;;;;;;4994519;28;20046;-71
2022/08/01 01:28:17;;;;;;;3.15;1.70;;;17.80;99.90;;;;;;4978383;28;20050;-71
2022/08/01 01:30:47;;;;;;;4.22;1.67;;;17.70;99.90;;;;;;4995077;28;20042;-70
2022/08/01 01:33:14;;;;;;;4.20;1.40;;;17.80;99.90;;;;;;4995102;28;20046;-71
2022/08/01 01:35:46;;;;;;;2.70;1.30;;;17.80;99.90;;;;;;4994637;28;20046;-71
2022/08/01 01:38:18;;;;;;;5.18;1.40;;;17.80;99.90;;;;;;4995674;28;20050;-70
2022/08/01 01:40:46;;;;;;;3.75;1.15;;;17.70;99.90;;;;;;4994358;28;20092;-70
2022/08/01 01:43:14;;;;;;;2.17;1.45;;;17.70;99.90;;;;;;4993749;28;20133;-70
2022/08/01 01:45:41;;;;;;;2.28;1.40;;;17.70;99.90;;;;;;4993825;28;20113;-71
2022/08/01 01:48:09;;;;;;;4.28;1.75;;;17.70;99.90;;;;;;4994843;28;20089;-70
2022/08/01 01:50:36;;;;;;;5.13;1.33;;;17.70;99.90;;;;;;4993811;28;20490;-70
2022/08/01 01:53:05;;;;;;;1.70;1.15;;;17.70;99.90;;;;;;4993478;28;20100;-70
2022/08/01 01:55:31;;;;;;;3.78;1.38;;;17.70;99.90;;;;;;4994703;28;20057;-71
2022/08/01 01:57:59;;;;;;;2.10;1.10;;;17.70;99.90;;;;;;4994697;28;20069;-71
2022/08/01 02:00:26;;;;;;;5.43;1.13;;;17.70;99.90;;;;;;4993487;28;20050;-71
2022/08/01 02:02:56;;;;;;;5.30;1.50;;;17.60;99.90;;;;;;4993245;28;20065;-71
2022/08/01 02:05:23;;;;;;;5.20;1.35;;;17.60;99.90;;;;;;4994563;28;20180;-71
2022/08/01 02:07:50;;;;;;;6.78;1.17;;;17.70;99.90;;;;;;4994612;28;20152;-71
2022/08/01 02:10:17;;;;;;;2.65;1.40;;;17.60;99.90;;;;;;4993570;28;20054;-71
2022/08/01 02:12:46;;;;;;;2.92;1.25;;;17.60;99.90;;;;;;4977051;28;20086;-72
2022/08/01 02:15:13;;;;;;;4.40;1.30;;;17.60;99.90;;;;;;4976979;28;20050;-72
2022/08/01 02:17:46;;;;;;;3.78;1.27;;;17.60;99.90;;;;;;4994430;28;20496;-72
2022/08/01 02:20:13;;;;;;;5.25;1.50;;;17.60;99.90;;;;;;4994452;28;20047;-71
2022/08/01 02:22:55;;;;;;;5.40;1.20;;;17.60;99.90;;;;;;4994339;28;20061;-71
2022/08/01 02:25:31;;;;;;;1.60;1.10;;;17.60;99.90;;;;;;4994819;28;20096;-71
2022/08/01 02:28:19;;;;;;;5.53;1.40;;;17.50;99.90;;;;;;4994820;28;20042;-71
2022/08/01 02:30:48;;;;;;;4.30;1.20;;;17.50;99.90;;;;;;4994308;28;20103;-71
2022/08/01 02:33:20;;;;;;;5.93;1.75;;;17.50;99.90;;;;;;4993927;28;20581;-71
2022/08/01 02:35:50;;;;;;;4.80;1.58;;;17.50;99.90;;;;;;4994159;28;20038;-70
2022/08/01 02:38:18;;;;;;;6.15;1.30;;;17.50;99.90;;;;;;4993062;28;20057;-71
2022/08/01 02:40:47;;;;;;;4.75;1.40;;;17.50;99.90;;;;;;4993062;28;20130;-70
2022/08/01 02:43:18;;;;;;;5.45;1.42;;;17.50;99.90;;;;;;4993566;28;20074;-70
2022/08/01 02:45:49;;;;;;;4.80;1.48;;;17.50;99.90;;;;;;4994332;28;20050;-71
2022/08/01 02:48:18;;;;;;;5.30;1.10;;;17.40;99.90;;;;;;4993975;28;20054;-70
2022/08/01 02:50:47;;;;;;;6.88;1.20;;;17.40;99.90;;;;;;4992898;28;20442;-70
2022/08/01 02:53:16;;;;;;;4.45;1.13;;;17.40;99.90;;;;;;4994074;28;20081;-70
2022/08/01 02:55:44;;;;;;;2.10;0.80;;;17.30;99.90;;;;;;4992814;28;20042;-70
2022/08/01 02:58:13;;;;;;;5.65;1.17;;;17.30;99.90;;;;;;4993988;28;20056;-70
2022/08/01 03:00:41;;;;;;;4.03;1.00;;;17.30;99.90;;;;;;4994005;28;20046;-70
2022/08/01 03:03:08;;;;;;;5.03;1.08;;;17.30;99.90;;;;;;4976818;28;20043;-70
2022/08/01 03:05:35;;;;;;;8.55;1.40;;;17.20;99.90;;;;;;4993927;28;20042;-70
2022/08/01 03:08:02;;;;;;;4.65;1.25;;;17.20;99.90;;;;;;4993811;28;20141;-70
2022/08/01 03:10:29;;;;;;;4.82;1.15;;;17.20;99.90;;;;;;4994161;28;20295;-70
2022/08/01 03:12:58;;;;;;;3.47;1.20;;;17.20;99.90;;;;;;4976857;28;20510;-70
2022/08/01 03:15:27;;;;;;;3.22;0.98;;;17.20;99.90;;;;;;4996177;28;20050;-71
2022/08/01 03:17:55;;;;;;;3.78;1.15;;;17.20;99.90;;;;;;4996717;28;20093;-71
2022/08/01 03:20:24;;;;;;;4.95;1.25;;;17.20;99.90;;;;;;4998423;28;20057;-71
2022/08/01 03:22:52;;;;;;;6.88;1.40;;;17.20;99.90;;;;;;4980749;28;20042;-71
2022/08/01 03:25:20;;;;;;;5.15;1.20;;;17.20;99.90;;;;;;4997559;28;20054;-71
2022/08/01 03:27:53;;;;;;;5.72;1.20;;;17.20;99.90;;;;;;4997222;28;20498;-70
2022/08/01 03:30:21;;;;;;;7.85;0.90;;;17.20;99.90;;;;;;4997485;28;20042;-71
2022/08/01 03:32:46;;;;;;;6.30;1.42;;;17.20;99.90;;;;;;4997062;28;20042;-71
2022/08/01 03:35:12;;;;;;;5.07;1.40;;;17.20;99.90;;;;;;4997302;28;20595;-70
2022/08/01 03:37:45;;;;;;;6.63;1.92;;;17.10;99.90;;;;;;4995981;28;20069;-71
2022/08/01 03:40:38;;;;;;;5.78;1.50;;;17.10;99.90;;;;;;4998128;28;20073;-70
2022/08/01 03:43:07;;;;;;;5.47;1.70;;;17.10;99.90;;;;;;4989036;28;20056;-71
2022/08/01 03:45:40;;;;;;;5.28;1.40;;;17.10;99.90;;;;;;4997098;28;20105;-71
2022/08/01 03:48:16;;;;;;;6.28;1.95;;;17.00;99.90;;;;;;4979923;28;20062;-71
2022/08/01 03:50:46;;;;;;;8.68;1.58;;;17.30;99.90;;;;;;4996966;28;20137;-70
2022/08/01 03:53:13;;;;;;;7.97;1.75;;;17.00;99.90;;;;;;4996907;28;20379;-71
2022/08/01 03:55:41;;;;;;;6.82;1.48;;;17.00;99.90;;;;;;4996235;28;20045;-71
2022/08/01 03:58:08;;;;;;;7.55;1.80;;;17.00;99.90;;;;;;4995726;28;20089;-71
2022/08/01 04:00:38;;;;;;;7.32;1.95;;;17.00;99.90;;;;;;4979690;28;20089;-71
2022/08/01 04:03:06;;;;;;;8.85;2.17;;;17.00;99.90;;;;;;4997175;28;20517;-71
2022/08/01 04:05:31;;;;;;;6.75;1.58;;;16.90;99.90;;;;;;4979568;28;20058;-71
2022/08/01 04:07:59;;;;;;;4.72;1.92;;;16.90;99.90;;;;;;4996371;28;20246;-72
2022/08/01 04:10:25;;;;;;;5.40;1.70;;;16.90;99.90;;;;;;4995465;28;20077;-71
2022/08/01 04:12:51;;;;;;;5.65;1.90;;;16.90;99.90;;;;;;4979598;28;20085;-72
2022/08/01 04:15:18;;;;;;;4.82;1.92;;;16.80;99.90;;;;;;4979194;28;20042;-72
2022/08/01 04:17:43;;;;;;;5.78;1.80;;;16.80;99.90;;;;;;4995895;28;20046;-71
2022/08/01 04:20:10;;;;;;;3.15;1.48;;;16.80;99.90;;;;;;4979618;28;20042;-71
2022/08/01 04:22:36;;;;;;;7.22;1.77;;;16.80;99.90;;;;;;4964150;28;20057;-71
2022/08/01 04:25:09;;;;;;;7.43;1.40;;;16.70;99.90;;;;;;4995355;28;20038;-71
2022/08/01 04:27:38;;;;;;;5.40;1.77;;;16.70;99.90;;;;;;4996402;28;20061;-71
2022/08/01 04:30:06;;;;;;;5.15;1.33;;;16.60;99.90;;;;;;4996764;28;20475;-71
2022/08/01 04:32:38;;;;;;;4.88;1.40;;;16.60;99.90;;;;;;4995161;28;20061;-71
2022/08/01 04:35:09;;;;;;;7.35;1.55;;;16.60;99.90;;;;;;4996303;28;20094;-71
2022/08/01 04:37:36;;;;;;;9.10;1.83;;;16.60;99.90;;;;;;4995867;28;20497;-72
2022/08/01 04:40:05;;;;;;;4.45;1.40;;;16.60;99.90;;;;;;4995524;28;20072;-72
2022/08/01 04:42:34;;;;;;;5.97;1.40;;;16.60;99.90;;;;;;4978987;28;20185;-71
2022/08/01 04:45:00;;;;;;;7.20;1.67;;;16.60;99.90;;;;;;4995337;28;20103;-72
2022/08/01 04:47:26;;;;;;;5.05;1.75;;;16.50;99.90;;;;;;4962563;28;20132;-71
2022/08/01 04:49:53;;;;;;;5.95;1.95;;;16.50;99.90;;;;;;4996019;28;20050;-71
2022/08/01 04:52:19;;;;;;;5.32;1.77;;;16.50;99.90;;;;;;4978811;28;20133;-71
2022/08/01 04:54:46;;;;;;;6.35;1.92;;;16.50;99.90;;;;;;4996310;28;20125;-71
2022/08/01 04:57:12;;;;;;;9.25;1.90;;;16.50;99.90;;;;;;4995401;28;20050;-72
2022/08/01 04:59:43;;;;;;;10.32;1.98;;;16.60;99.90;;;;;;4995837;28;20129;-72
2022/08/01 05:02:10;;;;;;;8.10;1.65;;;16.60;99.90;;;;;;4996072;28;20050;-71
2022/08/01 05:04:37;;;;;;;9.15;1.65;;;16.60;99.90;;;;;;4994775;28;20148;-72
2022/08/01 05:07:03;;;;;;;10.77;1.80;;;16.70;99.90;;;;;;4995574;28;20057;-72
2022/08/01 05:09:29;;;;;;;7.88;1.83;;;16.70;99.90;;;;;;4995459;28;20058;-72
2022/08/01 05:11:54;;;;;;;9.65;1.80;;;16.70;99.90;;;;;;4994611;28;20391;-72
2022/08/01 05:14:20;;;;;;;9.35;1.83;;;16.70;99.90;;;;;;4994275;28;20050;-72
2022/08/01 05:16:46;;;;;;;6.40;1.20;;;16.70;99.90;;;;;;4978424;28;20062;-72
2022/08/01 05:19:12;;;;;;;10.90;1.83;;;16.70;99.90;;;;;;4994471;28;20038;-72
2022/08/01 05:21:37;;;;;;;10.10;1.85;;;16.70;99.90;;;;;;4978218;28;20058;-72
2022/08/01 05:24:05;;;;;;;9.02;2.10;;;16.70;99.90;;;;;;4995336;28;20372;-73
2022/08/01 05:26:30;;;;;;;9.43;1.90;;;16.70;99.90;;;;;;4994829;28;20101;-72
2022/08/01 05:28:56;;;;;;;9.90;1.67;;;16.80;99.90;;;;;;4996056;28;20426;-73
2022/08/01 05:31:22;;;;;;;11.10;1.60;;;16.80;99.90;;;;;;4978031;28;20557;-73
2022/08/01 05:33:48;;;;;;;6.38;2.05;;;16.80;99.90;;;;;;4977855;28;20483;-72
2022/08/01 05:36:13;;;;;;;9.25;1.40;;;16.80;99.90;;;;;;4993156;28;20042;-72
2022/08/01 05:38:40;;;;;;;7.45;2.33;;;16.80;99.90;;;;;;4993919;28;20137;-73
2022/08/01 05:41:05;;;;;;;8.43;1.80;;;16.80;99.90;;;;;;4994079;28;20437;-73
2022/08/01 05:43:31;;;;;;;9.80;2.03;;;16.80;99.90;;;;;;4994951;28;20046;-73
2022/08/01 05:45:58;;;;;;;10.25;2.00;;;16.80;99.90;;;;;;4994888;28;20129;-73
2022/08/01 05:48:24;;;;;;;12.18;2.17;;;16.80;99.90;;;;;;4994689;28;20046;-74
2022/08/01 05:50:50;;;;;;;12.73;1.98;;;16.80;99.90;;;;;;4977821;28;20518;-75
2022/08/01 05:53:16;;;;;;;10.18;1.88;;;16.80;99.90;;;;;;4977722;28;20137;-73
2022/08/01 05:55:42;;;;;;;12.63;2.15;;;16.80;99.90;;;;;;4994377;28;20185;-74
2022/08/01 05:58:07;;;;;;;11.57;1.60;;;16.80;99.90;;;;;;4994693;28;20047;-73
2022/08/01 06:00:35;;;;;;;8.77;2.45;;;16.80;99.90;;;;;;4994656;28;20144;-73
2022/08/01 06:03:01;;;;;;;8.55;1.83;;;16.90;99.90;;;;;;4977416;28;20098;-73
2022/08/01 06:05:27;;;;;;;12.05;2.45;;;16.90;99.90;;;;;;4993400;28;20074;-73
2022/08/01 06:07:53;;;;;;;9.52;2.22;;;16.90;99.90;;;;;;4993108;28;20069;-74
2022/08/01 06:10:19;;;;;;;10.45;1.90;;;16.90;99.90;;;;;;4994395;28;20085;-74
2022/08/01 06:12:45;;;;;;;8.27;2.20;;;16.90;99.90;;;;;;4993787;28;20049;-73
2022/08/01 06:15:11;;;;;;;10.93;2.00;;;16.90;99.90;;;;;;4994261;28;20038;-73
2022/08/01 06:17:38;;;;;;;8.55;2.20;;;16.90;99.90;;;;;;4977138;28;20053;-73
2022/08/01 06:20:06;;;;;;;9.52;2.20;;;16.90;99.90;;;;;;4993702;28;20109;-73
2022/08/01 06:22:32;;;;;;;9.10;1.73;;;16.90;99.90;;;;;;4993626;28;20057;-73
2022/08/01 06:24:57;;;;;;;8.15;1.80;;;17.00;99.90;;;;;;4993387;28;20149;-73
2022/08/01 06:27:24;;;;;;;4.72;1.75;;;17.00;99.90;;;;;;4995103;28;20506;-74
2022/08/01 06:29:53;;;;;;;7.03;1.80;;;16.90;99.90;;;;;;4994720;28;20085;-74
2022/08/01 06:32:19;;;;;;;13.45;1.77;;;16.90;99.90;;;;;;4993257;28;20043;-74
2022/08/01 06:34:45;;;;;;;7.18;1.42;;;16.90;99.90;;;;;;4993147;28;20053;-73
2022/08/01 06:37:13;;;;;;;9.30;1.73;;;16.90;99.90;;;;;;4993024;28;20038;-73
2022/08/01 06:39:39;;;;;;;8.40;1.75;;;16.90;99.90;;;;;;4993547;28;20101;-73
2022/08/01 06:42:05;;;;;;;10.00;1.52;;;16.90;99.90;;;;;;4977065;28;20054;-73
2022/08/01 06:44:30;;;;;;;10.90;1.60;;;16.90;99.90;;;;;;4993406;28;20038;-73
2022/08/01 06:46:58;;;;;;;10.45;1.92;;;16.90;99.90;;;;;;4977346;28;20157;-73
2022/08/01 06:49:24;;;;;;;8.05;1.65;;;16.90;99.90;;;;;;4995336;28;20066;-72
2022/08/01 06:51:50;;;;;;;8.98;1.63;;;16.90;99.90;;;;;;4998223;28;20077;-73
2022/08/01 06:54:16;;;;;;;11.77;1.45;;;16.90;99.90;;;;;;4980953;28;20474;-73
2022/08/01 06:56:42;;;;;;;8.10;1.25;;;16.90;99.90;;;;;;4997832;28;20057;-74
2022/08/01 06:59:08;;;;;;;12.70;2.08;;;16.90;99.90;;;;;;4997811;28;20399;-74
2022/08/01 07:01:35;;;;;;;7.55;1.63;;;16.90;99.90;;;;;;4980726;28;20203;-74
2022/08/01 07:04:01;;;;;;;9.65;1.77;;;16.90;99.90;;;;;;4996558;28;20046;-74
2022/08/01 07:06:26;;;;;;;7.03;1.80;;;16.90;99.90;;;;;;4996695;28;20046;-78
2022/08/01 07:08:53;;;;;;;11.90;1.35;;;16.90;99.90;;;;;;4996385;28;20055;-74
2022/08/01 07:11:19;;;;;;;10.07;1.70;;;16.90;99.90;;;;;;4997490;28;20121;-73
2022/08/01 07:13:48;;;;;;;8.70;1.63;;;16.80;99.90;;;;;;4997796;28;20046;-74
2022/08/01 07:16:14;;;;;;;8.32;1.05;;;16.90;99.90;;;;;;4965050;28;20367;-74
2022/08/01 07:18:43;;;;;;;6.20;1.30;;;16.90;99.90;;;;;;4997149;28;20101;-74
2022/08/01 07:21:09;;;;;;;8.45;1.40;;;16.90;99.90;;;;;;4997792;28;20054;-74
2022/08/01 07:23:35;;;;;;;12.43;1.75;;;16.90;99.90;;;;;;4981192;28;20149;-74
2022/08/01 07:26:03;;;;;;;7.60;1.92;;;16.90;99.90;;;;;;4997438;28;20124;-74
2022/08/01 07:28:30;;;;;;;7.68;1.80;;;16.90;99.90;;;;;;4980924;28;20466;-74
2022/08/01 07:30:56;;;;;;;8.20;1.10;;;16.90;99.90;;;;;;4996451;28;20122;-73
2022/08/01 07:33:22;;;;;;;7.95;1.38;;;16.90;99.90;;;;;;4996555;28;20065;-74
2022/08/01 07:35:48;;;;;;;7.38;1.40;;;16.90;99.90;;;;;;4997378;28;20069;-74
2022/08/01 07:38:16;;;;;;;6.10;1.35;;;16.90;99.90;;;;;;4980993;28;20043;-74
2022/08/01 07:40:43;;;;;;;9.57;1.20;;;17.00;99.90;;;;;;4996252;28;20054;-75
2022/08/01 07:43:08;;;;;;;6.55;1.45;;;17.00;99.90;;;;;;4980558;28;20407;-76
2022/08/01 07:45:34;;;;;;;7.88;1.65;;;17.00;99.90;;;;;;4997033;28;20042;-74
2022/08/01 07:48:07;;;;;;;5.32;1.25;;;17.00;99.90;;;;;;4980066;28;20475;-74
2022/08/01 07:50:33;;;;;;;8.88;1.20;;;17.10;99.90;;;;;;4996211;28;20062;-75
2022/08/01 07:52:59;;;;;;;7.05;0.90;;;17.10;99.90;;;;;;4964836;28;20050;-75
2022/08/01 07:55:26;;;;;;;5.85;1.42;;;17.20;99.90;;;;;;4995604;28;20483;-76
2022/08/01 07:57:52;;;;;;;10.45;1.40;;;17.20;99.90;;;;;;4980413;28;20057;-74
2022/08/01 08:00:18;;;;;;;6.25;1.00;;;17.20;99.90;;;;;;4995550;28;20052;-73
2022/08/01 08:02:44;;;;;;;5.82;1.08;;;17.20;99.90;;;;;;4995653;28;20051;-76
2022/08/01 08:05:10;;;;;;;9.85;1.42;;;17.20;99.90;;;;;;4948714;28;20051;-74
2022/08/01 08:07:37;;;;;;;7.82;1.35;;;17.20;99.90;;;;;;4995357;28;20565;-75
2022/08/01 08:10:04;;;;;;;7.53;0.98;;;17.20;99.90;;;;;;4996849;28;20080;-75
2022/08/01 08:12:30;;;;;;;5.35;1.60;;;17.20;99.90;;;;;;4979600;28;20048;-76
2022/08/01 08:14:58;;;;;;;7.57;1.00;;;17.20;99.90;;;;;;4995505;28;20042;-76
2022/08/01 08:17:25;;;;;;;6.57;1.20;;;17.30;99.90;;;;;;4979287;28;20085;-75
2022/08/01 08:19:50;;;;;;;7.88;1.45;;;17.30;99.90;;;;;;4995573;28;20038;-77
2022/08/01 08:22:16;;;;;;;7.40;1.38;;;17.30;99.90;;;;;;4980003;28;20038;-79
2022/08/01 08:24:42;;;;;;;8.15;1.80;;;17.30;99.90;;;;;;4963082;28;20125;-78
2022/08/01 08:27:07;;;;;;;5.78;1.10;;;17.30;99.90;;;;;;4963393;28;20150;-80
2022/08/01 08:29:33;;;;;;;8.00;0.88;;;17.40;99.90;;;;;;4963008;28;20109;-82
2022/08/01 08:32:00;;;;;;;4.45;0.90;;;17.40;99.90;;;;;;4979686;28;20042;-81
2022/08/01 08:34:27;;;;;;;5.55;1.25;;;17.50;99.90;;;;;;4994946;28;20054;-77
2022/08/01 08:36:54;;;;;;;4.53;0.88;;;17.50;99.90;;;;;;4978405;28;20073;-78
2022/08/01 08:39:20;;;;;;;6.60;0.98;;;17.50;99.90;;;;;;4978270;28;20061;-78
2022/08/01 08:41:47;;;;;;;9.27;1.30;;;17.50;99.90;;;;;;4978255;28;20038;-78
2022/08/01 08:44:14;;;;;;;7.55;1.30;;;17.50;99.90;;;;;;4994993;28;20045;-78
2022/08/01 08:46:48;;;;;;;10.07;1.30;;;17.60;99.90;;;;;;4995148;28;20043;-80
2022/08/01 08:49:26;;;;;;;5.40;1.27;;;17.50;99.90;;;;;;4977966;28;20061;-79
2022/08/01 08:51:52;;;;;;;6.05;1.20;;;17.50;99.90;;;;;;4994299;28;20046;-78
2022/08/01 08:54:23;;;;;;;9.85;1.52;;;17.60;99.90;;;;;;4994391;28;20058;-78
2022/08/01 08:56:53;;;;;;;5.43;1.20;;;17.60;99.90;;;;;;4977914;28;20085;-79
2022/08/01 08:59:20;;;;;;;5.40;1.20;;;17.70;99.90;;;;;;4978179;28;20054;-82
2022/08/01 09:01:46;;;;;;;5.53;0.95;;;17.70;99.90;;;;;;4994073;28;20553;-80
2022/08/01 09:04:12;;;;;;;4.82;0.95;;;17.70;99.90;;;;;;4977553;28;20042;-80
2022/08/01 09:06:38;;;;;;;4.65;1.00;;;17.70;99.90;;;;;;4978250;28;20058;-80
2022/08/01 09:09:05;;;;;;;5.85;0.95;;;17.80;99.90;;;;;;4994471;28;20109;-83
2022/08/01 09:11:31;;;;;;;3.33;0.88;;;17.70;99.90;;;;;;4993307;28;20090;-77
2022/08/01 09:14:10;;;;;;;6.10;1.38;;;17.80;99.90;;;;;;4993294;28;20057;-80
2022/08/01 09:16:41;;;;;;;6.50;1.13;;;18.20;99.90;;;;;;4977409;28;20042;-79
2022/08/01 09:19:08;;;;;;;6.45;1.38;;;17.70;99.90;;;;;;4995488;28;20379;-82
2022/08/01 09:21:34;;;;;;;6.35;0.90;;;17.70;99.90;;;;;;4995456;28;20046;-78
2022/08/01 09:24:02;;;;;;;4.95;1.00;;;17.80;99.90;;;;;;4995483;28;20371;-77
2022/08/01 09:26:30;;;;;;;5.72;1.05;;;17.80;99.90;;;;;;4978806;28;20050;-79
2022/08/01 09:28:56;;;;;;;6.40;1.00;;;17.90;99.90;;;;;;4978531;28;20386;-78
2022/08/01 09:31:22;;;;;;;4.80;1.10;;;17.90;99.90;;;;;;4979002;28;20050;-77
2022/08/01 09:34:00;;;;;;;5.03;0.82;;;17.90;99.90;;;;;;4994625;28;20541;-77
2022/08/01 09:36:43;;;;;;;2.80;0.85;;;18.00;99.90;;;;;;4993981;28;20046;-80
2022/08/01 09:39:13;;;;;;;6.85;0.98;;;18.00;99.90;;;;;;4979603;28;20053;-79
2022/08/01 09:41:39;;;;;;;6.32;0.90;;;18.10;99.90;;;;;;4995089;28;20136;-81
2022/08/01 09:44:05;;;;;;;3.40;0.93;;;18.10;99.90;;;;;;4994213;28;20499;-78
2022/08/01 09:46:31;;;;;;;6.10;1.00;;;18.10;99.90;;;;;;4962163;28;20090;-80
2022/08/01 09:49:03;;;;;;;3.40;0.90;;;18.10;99.90;;;;;;4977894;28;20502;-80
2022/08/01 09:51:34;;;;;;;4.40;0.88;;;18.10;99.90;;;;;;4977856;28;20094;-77
2022/08/01 09:54:01;;;;;;;5.30;0.90;;;18.20;99.90;;;;;;4978630;28;20133;-78
2022/08/01 09:56:34;;;;;;;5.30;1.15;;;18.30;99.90;;;;;;4994852;28;20038;-78
2022/08/01 09:59:00;;;;;;;6.68;0.98;;;18.30;99.90;;;;;;4978863;28;20050;-76
2022/08/01 10:01:27;;;;;;;5.95;1.10;;;18.30;99.90;;;;;;4977708;28;20049;-75
2022/08/01 10:04:13;;;;;;;3.75;0.77;;;18.40;99.90;;;;;;4993259;28;20509;-79
2022/08/01 10:06:45;;;;;;;6.43;0.98;;;18.40;99.90;;;;;;4994669;28;20061;-79
2022/08/01 10:09:12;;;;;;;6.90;1.00;;;18.40;99.90;;;;;;4993874;28;20070;-79
2022/08/01 10:11:43;;;;;;;7.50;1.15;;;18.40;99.90;;;;;;4977732;28;20054;-77
2022/08/01 10:14:09;;;;;;;7.88;1.30;;;18.50;99.90;;;;;;4961736;28;20058;-79
2022/08/01 10:16:36;;;;;;;6.90;1.17;;;18.50;99.90;;;;;;4961260;28;20048;-80
2022/08/01 10:19:06;;;;;;;5.72;1.30;;;18.50;99.90;;;;;;4977077;28;20050;-78
2022/08/01 10:21:34;;;;;;;10.30;1.35;;;18.50;99.90;;;;;;4977382;28;20057;-77
2022/08/01 10:24:02;;;;;;;7.93;1.10;;;18.50;99.90;;;;;;4961516;28;20124;-76
2022/08/01 10:26:31;;;;;;;6.68;1.17;;;18.50;99.90;;;;;;4977407;28;20092;-74
2022/08/01 10:28:57;;;;;;;5.70;1.20;;;18.50;99.90;;;;;;4993500;28;20120;-76
2022/08/01 10:31:23;;;;;;;4.78;0.95;;;18.50;99.90;;;;;;4977350;28;20050;-75
2022/08/01 10:33:51;;;;;;;4.72;0.95;;;18.50;99.90;;;;;;4993455;28;20054;-75
2022/08/01 10:36:21;;;;;;;5.22;0.90;;;18.60;99.90;;;;;;4993713;28;20101;-75
2022/08/01 10:38:47;;;;;;;6.32;1.40;;;18.50;99.90;;;;;;4961345;28;20122;-76
2022/08/01 10:41:17;;;;;;;8.23;1.35;;;18.50;99.90;;;;;;4993961;28;20483;-74
2022/08/01 10:43:43;;;;;;;5.50;0.85;;;18.50;99.90;;;;;;4993117;28;20054;-76
2022/08/01 10:46:09;;;;;;;6.97;0.95;;;18.50;99.90;;;;;;4977097;28;20065;-74
2022/08/01 10:49:03;;;;;;;8.57;1.00;;;18.60;99.90;;;;;;4977381;28;20085;-75
2022/08/01 10:51:29;;;;;;;4.10;0.90;;;18.70;99.90;;;;;;4993578;28;20058;-74
2022/08/01 10:53:55;;;;;;;3.13;0.80;;;18.70;99.90;;;;;;4977008;28;20051;-74
2022/08/01 10:56:23;;;;;;;4.65;0.75;;;18.70;99.90;;;;;;4993735;28;20038;-75
2022/08/01 10:58:54;;;;;;;5.63;0.88;;;18.70;99.90;;;;;;4992998;28;20200;-75
2022/08/01 11:01:34;;;;;;;5.20;1.30;;;18.70;99.90;;;;;;4994170;28;20129;-75
2022/08/01 11:04:09;;;;;;;9.35;1.00;;;18.70;99.90;;;;;;4992889;28;20054;-75
2022/08/01 11:06:39;;;;;;;4.90;0.90;;;18.70;99.90;;;;;;4992880;28;20058;-75
2022/08/01 11:09:24;;;;;;;6.20;1.13;;;18.70;99.90;;;;;;4992458;28;20080;-75
2022/08/01 11:12:11;;;;;;;4.15;0.80;;;18.70;99.90;;;;;;4993339;28;20145;-75
2022/08/01 11:15:04;;;;;;;6.85;0.98;;;18.60;99.90;;;;;;4992808;28;20048;-75
2022/08/01 11:17:39;;;;;;;3.97;0.80;;;18.50;99.90;;;;;;4976662;28;20100;-75
2022/08/01 11:20:15;;;;;;;5.18;0.93;;;18.50;99.90;;;;;;4993157;28;20089;-75
2022/08/01 11:23:05;;;;;;;4.68;0.90;;;18.50;99.90;;;;;;4993810;28;20057;-75
2022/08/01 11:25:33;;;;;;;4.60;1.08;;;18.50;99.90;;;;;;4977373;28;20115;-76
2022/08/01 11:28:31;;;;;;;4.80;0.90;;;18.50;99.90;;;;;;4992492;28;20054;-76
2022/08/01 11:31:12;;;;;;;7.22;0.80;;;18.50;99.90;;;;;;4960884;28;20081;-76
2022/08/01 11:33:41;;;;;;;4.70;0.80;;;18.60;99.90;;;;;;4992969;28;20047;-76
2022/08/01 11:36:12;;;;;;;6.80;1.00;;;18.60;99.90;;;;;;4995345;28;20459;-75
2022/08/01 11:38:57;;;;;;;3.67;0.80;;;18.50;99.90;;;;;;4997032;28;20068;-76
2022/08/01 11:41:25;;;;;;;6.47;0.95;;;18.60;99.90;;;;;;4967214;28;20043;-76
2022/08/01 11:43:59;;;;;;;5.65;1.25;;;18.60;99.90;;;;;;4996971;28;20213;-75
2022/08/01 11:46:52;;;;;;;3.80;0.70;;;18.70;99.90;;;;;;4980898;28;20042;-76
2022/08/01 11:49:36;;;;;;;7.28;0.90;;;18.70;99.90;;;;;;4979840;28;20104;-75
2022/08/01 11:52:06;;;;;;;3.28;1.23;;;18.70;99.90;;;;;;4996077;28;20060;-76
2022/08/01 11:54:39;;;;;;;3.05;0.95;;;18.80;99.90;;;;;;4979933;28;20072;-76
2022/08/01 11:57:05;;;;;;;;;;;18.80;99.90;;;;;;4980121;28;20050;-76
2022/08/01 11:59:47;;;;;;;5.20;0.80;;;18.80;99.90;;;;;;4997521;28;19928;-75
2022/08/01 12:02:30;;;;;;;5.30;0.80;;;18.80;99.90;;;;;;4980112;28;20445;-76
2022/08/01 12:05:02;;;;;;;5.82;0.82;;;18.80;99.90;;;;;;4964457;28;20120;-76
2022/08/01 12:07:29;;;;;;;3.05;0.70;;;18.80;99.90;;;;;;4994580;28;20097;-76
2022/08/01 12:10:00;;;;;;;2.22;0.60;;;18.80;99.90;;;;;;4997277;28;20058;-76
2022/08/01 12:12:27;;;;;;;6.53;0.93;;;18.80;99.90;;;;;;4996687;28;20050;-76
2022/08/01 12:14:57;;;;;;;4.13;0.85;;;18.90;99.90;;;;;;4995609;28;20344;-77
2022/08/01 12:17:34;;;;;;;4.97;0.70;;;18.90;99.90;;;;;;4996527;28;20074;-77
2022/08/01 12:20:02;;;;;;;2.92;0.90;;;19.00;99.90;;;;;;4996580;28;20038;-75
2022/08/01 12:22:28;;;;;;;5.95;0.80;;;19.00;99.90;;;;;;4996580;28;20046;-77
2022/08/01 12:24:54;;;;;;;5.20;0.75;;;19.00;99.90;;;;;;4979337;28;20054;-78
2022/08/01 12:27:30;;;;;;;2.67;0.68;;;19.00;99.90;;;;;;4995463;28;20065;-77
2022/08/01 12:29:59;;;;;;;4.47;0.80;;;18.90;99.90;;;;;;4996176;28;20478;-78
2022/08/01 12:32:35;;;;;;;3.70;0.70;;;18.90;99.90;;;;;;4978896;28;20046;-77
2022/08/01 12:35:04;;;;;;;5.93;0.90;;;18.80;99.90;;;;;;4996241;28;20043;-77
2022/08/01 12:37:31;;;;;;;3.13;0.70;;;18.80;99.90;;;;;;4995393;28;20140;-76
2022/08/01 12:39:57;;;;;;;4.40;0.75;;;18.80;99.90;;;;;;4995031;28;20054;-77
2022/08/01 12:42:24;;;;;;;3.38;1.10;;;18.80;99.90;;;;;;4979011;28;20050;-74
2022/08/01 12:44:52;;;;;;;3.95;0.93;;;18.80;99.90;;;;;;4995716;28;20039;-74
2022/08/01 12:47:20;;;;;;;3.08;0.70;;;18.80;99.90;;;;;;4994018;28;20057;-74
2022/08/01 12:49:46;;;;;;;4.90;0.70;;;18.80;99.90;;;;;;4978866;28;20085;-74
2022/08/01 12:52:12;;;;;;;3.13;0.70;;;18.80;99.90;;;;;;4995078;28;20442;-74
2022/08/01 12:55:00;;;;;;;3.38;0.75;;;18.80;99.90;;;;;;4995873;28;20117;-74